sensor_id;sensor_type;location;lat;lon;timestamp;temperature;humidity
22813;DHT22;11573;51.334;3.244;2023-04-27T00:02:01;5.60;99.90
22813;DHT22;11573;51.334;3.244;2023-04-27T00:04:28;5.50;99.90
22813;DHT22;11573;51.334;3.244;2023-04-27T00:06:56;5.50;99.90
22813;DHT22;11573;51.334;3.244;2023-04-27T00:09:23;5.40;99.90
22813;DHT22;11573;51.334;3.244;2023-04-27T00:11:50;5.50;99.90
22813;DHT22;11573;51.334;3.244;2023-04-27T00:14:17;5.50;99.90
22813;DHT22;11573;51.334;3.244;2023-04-27T00:16:44;5.50;99.90
22813;DHT22;11573;51.334;3.244;2023-04-27T00:19:11;5.40;99.90
22813;DHT22;11573;51.334;3.244;2023-04-27T00:21:40;5.40;99.90
22813;DHT22;11573;51.334;3.244;2023-04-27T00:24:07;5.40;99.90
22813;DHT22;11573;51.334;3.244;2023-04-27T00:26:34;5.40;99.90
22813;DHT22;11573;51.334;3.244;2023-04-27T00:29:01;5.40;99.90
22813;DHT22;11573;51.334;3.244;2023-04-27T00:31:28;5.40;99.90
22813;DHT22;11573;51.334;3.244;2023-04-27T00:33:55;5.40;99.90
22813;DHT22;11573;51.334;3.244;2023-04-27T00:36:22;5.40;99.90
22813;DHT22;11573;51.334;3.244;2023-04-27T00:38:49;5.40;99.90
22813;DHT22;11573;51.334;3.244;2023-04-27T00:41:16;5.40;99.90
22813;DHT22;11573;51.334;3.244;2023-04-27T00:43:44;5.40;99.90
22813;DHT22;11573;51.334;3.244;2023-04-27T00:46:12;5.40;99.90
22813;DHT22;11573;51.334;3.244;2023-04-27T00:48:41;5.40;99.90
22813;DHT22;11573;51.334;3.244;2023-04-27T00:51:08;5.50;99.90
22813;DHT22;11573;51.334;3.244;2023-04-27T00:53:36;5.50;99.90
22813;DHT22;11573;51.334;3.244;2023-04-27T00:56:05;5.40;99.90
22813;DHT22;11573;51.334;3.244;2023-04-27T00:58:32;5.50;99.90
22813;DHT22;11573;51.334;3.244;2023-04-27T01:00:59;5.50;99.90
22813;DHT22;11573;51.334;3.244;2023-04-27T01:03:26;5.60;99.90
22813;DHT22;11573;51.334;3.244;2023-04-27T01:05:54;5.60;99.90
22813;DHT22;11573;51.334;3.244;2023-04-27T01:08:22;5.70;99.90
22813;DHT22;11573;51.334;3.244;2023-04-27T01:10:50;5.70;99.90
22813;DHT22;11573;51.334;3.244;2023-04-27T01:13:17;5.70;99.90
22813;DHT22;11573;51.334;3.244;2023-04-27T01:15:44;5.70;99.90
22813;DHT22;11573;51.334;3.244;2023-04-27T01:18:11;5.70;99.90
22813;DHT22;11573;51.334;3.244;2023-04-27T01:20:38;5.70;99.90
22813;DHT22;11573;51.334;3.244;2023-04-27T01:23:11;5.70;99.90
22813;DHT22;11573;51.334;3.244;2023-04-27T01:25:41;5.80;99.90
22813;DHT22;11573;51.334;3.244;2023-04-27T01:28:08;5.70;99.90
22813;DHT22;11573;51.334;3.244;2023-04-27T01:30:36;5.70;99.90
22813;DHT22;11573;51.334;3.244;2023-04-27T01:33:03;5.80;99.90
22813;DHT22;11573;51.334;3.244;2023-04-27T01:35:30;5.80;99.90
22813;DHT22;11573;51.334;3.244;2023-04-27T01:37:59;5.80;99.90
22813;DHT22;11573;51.334;3.244;2023-04-27T01:40:26;5.70;99.90
22813;DHT22;11573;51.334;3.244;2023-04-27T01:42:53;5.70;99.90
22813;DHT22;11573;51.334;3.244;2023-04-27T01:45:20;5.80;99.90
22813;DHT22;11573;51.334;3.244;2023-04-27T01:47:50;5.60;99.90
22813;DHT22;11573;51.334;3.244;2023-04-27T01:50:19;5.50;99.90
22813;DHT22;11573;51.334;3.244;2023-04-27T01:52:46;5.40;99.90
22813;DHT22;11573;51.334;3.244;2023-04-27T01:55:13;5.30;99.90
22813;DHT22;11573;51.334;3.244;2023-04-27T01:57:41;5.20;99.90
22813;DHT22;11573;51.334;3.244;2023-04-27T02:00:08;5.10;99.90
22813;DHT22;11573;51.334;3.244;2023-04-27T02:02:47;5.00;99.90
22813;DHT22;11573;51.334;3.244;2023-04-27T02:05:17;5.00;99.90
22813;DHT22;11573;51.334;3.244;2023-04-27T02:07:45;4.90;99.90
22813;DHT22;11573;51.334;3.244;2023-04-27T02:10:12;4.90;99.90
22813;DHT22;11573;51.334;3.244;2023-04-27T02:12:39;4.90;99.90
22813;DHT22;11573;51.334;3.244;2023-04-27T02:15:08;4.90;99.90
22813;DHT22;11573;51.334;3.244;2023-04-27T02:17:35;4.80;99.90
22813;DHT22;11573;51.334;3.244;2023-04-27T02:20:02;4.80;99.90
22813;DHT22;11573;51.334;3.244;2023-04-27T02:22:32;4.80;99.90
22813;DHT22;11573;51.334;3.244;2023-04-27T02:24:59;4.80;99.90
22813;DHT22;11573;51.334;3.244;2023-04-27T02:27:26;4.80;99.90
22813;DHT22;11573;51.334;3.244;2023-04-27T02:29:54;4.70;99.90
22813;DHT22;11573;51.334;3.244;2023-04-27T02:32:22;4.70;99.90
22813;DHT22;11573;51.334;3.244;2023-04-27T02:34:49;4.70;99.90
22813;DHT22;11573;51.334;3.244;2023-04-27T02:37:17;4.70;99.90
22813;DHT22;11573;51.334;3.244;2023-04-27T02:39:45;4.70;99.90
22813;DHT22;11573;51.334;3.244;2023-04-27T02:42:13;4.60;99.90
22813;DHT22;11573;51.334;3.244;2023-04-27T02:44:41;4.60;99.90
22813;DHT22;11573;51.334;3.244;2023-04-27T02:47:09;4.70;99.90
22813;DHT22;11573;51.334;3.244;2023-04-27T02:49:36;4.70;99.90
22813;DHT22;11573;51.334;3.244;2023-04-27T02:52:04;4.60;99.90
22813;DHT22;11573;51.334;3.244;2023-04-27T02:54:31;4.60;99.90
22813;DHT22;11573;51.334;3.244;2023-04-27T02:56:58;4.60;99.90
22813;DHT22;11573;51.334;3.244;2023-04-27T02:59:25;4.60;99.90
22813;DHT22;11573;51.334;3.244;2023-04-27T03:01:52;4.60;99.90
22813;DHT22;11573;51.334;3.244;2023-04-27T03:04:20;4.50;99.90
22813;DHT22;11573;51.334;3.244;2023-04-27T03:06:47;4.50;99.90
22813;DHT22;11573;51.334;3.244;2023-04-27T03:09:14;4.50;99.90
22813;DHT22;11573;51.334;3.244;2023-04-27T03:11:42;4.40;99.90
22813;DHT22;11573;51.334;3.244;2023-04-27T03:14:09;4.40;99.90
22813;DHT22;11573;51.334;3.244;2023-04-27T03:16:36;4.30;99.90
22813;DHT22;11573;51.334;3.244;2023-04-27T03:19:03;4.20;99.90
22813;DHT22;11573;51.334;3.244;2023-04-27T03:21:30;4.20;99.90
22813;DHT22;11573;51.334;3.244;2023-04-27T03:23:57;4.10;99.90
22813;DHT22;11573;51.334;3.244;2023-04-27T03:26:24;4.00;99.90
22813;DHT22;11573;51.334;3.244;2023-04-27T03:28:52;4.00;99.90
22813;DHT22;11573;51.334;3.244;2023-04-27T03:31:19;3.90;99.90
22813;DHT22;11573;51.334;3.244;2023-04-27T03:33:46;3.80;99.90
22813;DHT22;11573;51.334;3.244;2023-04-27T03:36:14;3.80;99.90
22813;DHT22;11573;51.334;3.244;2023-04-27T03:38:41;3.80;99.90
22813;DHT22;11573;51.334;3.244;2023-04-27T03:41:08;3.80;99.90
22813;DHT22;11573;51.334;3.244;2023-04-27T03:43:35;3.70;99.90
22813;DHT22;11573;51.334;3.244;2023-04-27T03:46:02;3.70;99.90
22813;DHT22;11573;51.334;3.244;2023-04-27T03:48:29;3.70;99.90
22813;DHT22;11573;51.334;3.244;2023-04-27T03:50:56;3.70;99.90
22813;DHT22;11573;51.334;3.244;2023-04-27T03:53:23;3.70;99.90
22813;DHT22;11573;51.334;3.244;2023-04-27T03:55:51;3.60;99.90
22813;DHT22;11573;51.334;3.244;2023-04-27T03:58:18;3.60;99.90
22813;DHT22;11573;51.334;3.244;2023-04-27T04:01:05;3.60;99.90
22813;DHT22;11573;51.334;3.244;2023-04-27T04:03:32;3.60;99.90
22813;DHT22;11573;51.334;3.244;2023-04-27T04:06:00;3.60;99.90
22813;DHT22;11573;51.334;3.244;2023-04-27T04:08:29;3.60;99.90
22813;DHT22;11573;51.334;3.244;2023-04-27T04:10:59;3.60;99.90
22813;DHT22;11573;51.334;3.244;2023-04-27T04:13:27;3.50;99.90
22813;DHT22;11573;51.334;3.244;2023-04-27T04:16:05;3.50;99.90
22813;DHT22;11573;51.334;3.244;2023-04-27T04:18:33;3.50;99.90
22813;DHT22;11573;51.334;3.244;2023-04-27T04:21:01;3.50;99.90
22813;DHT22;11573;51.334;3.244;2023-04-27T04:23:28;3.60;99.90
22813;DHT22;11573;51.334;3.244;2023-04-27T04:25:56;3.60;99.90
22813;DHT22;11573;51.334;3.244;2023-04-27T04:28:27;3.60;99.90
22813;DHT22;11573;51.334;3.244;2023-04-27T04:30:54;3.50;99.90
22813;DHT22;11573;51.334;3.244;2023-04-27T04:33:21;3.50;99.90
22813;DHT22;11573;51.334;3.244;2023-04-27T04:35:48;3.50;99.90
22813;DHT22;11573;51.334;3.244;2023-04-27T04:38:15;3.50;99.90
22813;DHT22;11573;51.334;3.244;2023-04-27T04:40:42;3.50;99.90
22813;DHT22;11573;51.334;3.244;2023-04-27T04:43:11;3.50;99.90
22813;DHT22;11573;51.334;3.244;2023-04-27T04:45:40;3.60;99.90
22813;DHT22;11573;51.334;3.244;2023-04-27T04:48:10;3.60;99.90
22813;DHT22;11573;51.334;3.244;2023-04-27T04:50:38;3.80;99.90
22813;DHT22;11573;51.334;3.244;2023-04-27T04:53:05;4.00;99.90
22813;DHT22;11573;51.334;3.244;2023-04-27T04:55:32;4.10;99.90
22813;DHT22;11573;51.334;3.244;2023-04-27T04:58:00;4.50;99.90
22813;DHT22;11573;51.334;3.244;2023-04-27T05:00:27;4.90;99.90
22813;DHT22;11573;51.334;3.244;2023-04-27T05:02:55;5.30;99.90
22813;DHT22;11573;51.334;3.244;2023-04-27T05:05:22;5.60;99.90
22813;DHT22;11573;51.334;3.244;2023-04-27T05:07:49;6.00;99.90
22813;DHT22;11573;51.334;3.244;2023-04-27T05:10:16;6.20;87.20
22813;DHT22;11573;51.334;3.244;2023-04-27T05:12:43;6.40;99.90
22813;DHT22;11573;51.334;3.244;2023-04-27T05:15:10;6.70;99.90
22813;DHT22;11573;51.334;3.244;2023-04-27T05:17:37;7.10;99.90
22813;DHT22;11573;51.334;3.244;2023-04-27T05:20:05;7.90;99.90
22813;DHT22;11573;51.334;3.244;2023-04-27T05:22:32;8.40;99.90
22813;DHT22;11573;51.334;3.244;2023-04-27T05:24:59;8.90;99.90
22813;DHT22;11573;51.334;3.244;2023-04-27T05:27:26;9.00;99.90
22813;DHT22;11573;51.334;3.244;2023-04-27T05:29:53;9.30;99.90
22813;DHT22;11573;51.334;3.244;2023-04-27T05:32:20;8.90;99.90
22813;DHT22;11573;51.334;3.244;2023-04-27T05:34:47;8.50;99.90
22813;DHT22;11573;51.334;3.244;2023-04-27T05:37:15;8.20;99.90
22813;DHT22;11573;51.334;3.244;2023-04-27T05:39:42;7.80;99.90
22813;DHT22;11573;51.334;3.244;2023-04-27T05:42:09;7.60;99.90
22813;DHT22;11573;51.334;3.244;2023-04-27T05:44:36;7.40;99.90
22813;DHT22;11573;51.334;3.244;2023-04-27T05:47:03;7.10;99.90
22813;DHT22;11573;51.334;3.244;2023-04-27T05:49:30;6.90;99.90
22813;DHT22;11573;51.334;3.244;2023-04-27T05:51:57;6.90;99.90
22813;DHT22;11573;51.334;3.244;2023-04-27T05:54:24;7.00;99.90
22813;DHT22;11573;51.334;3.244;2023-04-27T05:56:53;7.20;99.90
22813;DHT22;11573;51.334;3.244;2023-04-27T05:59:20;7.50;99.90
22813;DHT22;11573;51.334;3.244;2023-04-27T06:01:47;7.70;99.90
22813;DHT22;11573;51.334;3.244;2023-04-27T06:04:14;7.70;99.90
22813;DHT22;11573;51.334;3.244;2023-04-27T06:06:41;7.80;99.90
22813;DHT22;11573;51.334;3.244;2023-04-27T06:09:10;7.90;99.90
22813;DHT22;11573;51.334;3.244;2023-04-27T06:11:37;7.90;99.90
22813;DHT22;11573;51.334;3.244;2023-04-27T06:14:04;7.90;99.90
22813;DHT22;11573;51.334;3.244;2023-04-27T06:16:31;7.80;99.90
22813;DHT22;11573;51.334;3.244;2023-04-27T06:18:58;8.00;99.90
22813;DHT22;11573;51.334;3.244;2023-04-27T06:21:25;8.10;99.90
22813;DHT22;11573;51.334;3.244;2023-04-27T06:23:52;8.20;99.90
22813;DHT22;11573;51.334;3.244;2023-04-27T06:26:19;8.30;99.90
22813;DHT22;11573;51.334;3.244;2023-04-27T06:28:46;8.50;99.90
22813;DHT22;11573;51.334;3.244;2023-04-27T06:31:13;8.60;99.90
22813;DHT22;11573;51.334;3.244;2023-04-27T06:33:40;8.70;99.90
22813;DHT22;11573;51.334;3.244;2023-04-27T06:36:07;8.60;99.90
22813;DHT22;11573;51.334;3.244;2023-04-27T06:38:34;8.70;99.90
22813;DHT22;11573;51.334;3.244;2023-04-27T06:41:01;8.90;99.90
22813;DHT22;11573;51.334;3.244;2023-04-27T06:43:29;9.10;99.90
22813;DHT22;11573;51.334;3.244;2023-04-27T06:45:56;9.10;99.90
22813;DHT22;11573;51.334;3.244;2023-04-27T06:48:23;8.90;99.90
22813;DHT22;11573;51.334;3.244;2023-04-27T06:50:50;8.90;99.90
22813;DHT22;11573;51.334;3.244;2023-04-27T06:53:18;9.00;99.90
22813;DHT22;11573;51.334;3.244;2023-04-27T06:55:45;9.00;99.90
22813;DHT22;11573;51.334;3.244;2023-04-27T06:58:14;9.20;99.90
22813;DHT22;11573;51.334;3.244;2023-04-27T07:00:41;9.00;99.90
22813;DHT22;11573;51.334;3.244;2023-04-27T07:03:08;9.10;99.90
22813;DHT22;11573;51.334;3.244;2023-04-27T07:05:35;9.10;99.90
22813;DHT22;11573;51.334;3.244;2023-04-27T07:08:02;9.30;99.90
22813;DHT22;11573;51.334;3.244;2023-04-27T07:10:34;9.40;99.90
22813;DHT22;11573;51.334;3.244;2023-04-27T07:13:01;9.40;99.90
22813;DHT22;11573;51.334;3.244;2023-04-27T07:15:30;9.50;99.90
22813;DHT22;11573;51.334;3.244;2023-04-27T07:17:57;9.60;99.90
22813;DHT22;11573;51.334;3.244;2023-04-27T07:20:24;9.80;99.90
22813;DHT22;11573;51.334;3.244;2023-04-27T07:22:52;10.00;99.90
22813;DHT22;11573;51.334;3.244;2023-04-27T07:25:19;10.30;99.90
22813;DHT22;11573;51.334;3.244;2023-04-27T07:27:46;10.40;99.90
22813;DHT22;11573;51.334;3.244;2023-04-27T07:30:13;10.50;99.90
22813;DHT22;11573;51.334;3.244;2023-04-27T07:32:41;10.40;99.90
22813;DHT22;11573;51.334;3.244;2023-04-27T07:35:08;10.60;99.90
22813;DHT22;11573;51.334;3.244;2023-04-27T07:37:36;10.60;99.90
22813;DHT22;11573;51.334;3.244;2023-04-27T07:40:04;10.60;99.90
22813;DHT22;11573;51.334;3.244;2023-04-27T07:42:37;10.60;99.90
22813;DHT22;11573;51.334;3.244;2023-04-27T07:45:06;10.80;99.90
22813;DHT22;11573;51.334;3.244;2023-04-27T07:47:34;11.00;99.90
22813;DHT22;11573;51.334;3.244;2023-04-27T07:50:01;10.90;99.90
22813;DHT22;11573;51.334;3.244;2023-04-27T07:52:30;10.90;99.90
22813;DHT22;11573;51.334;3.244;2023-04-27T07:54:57;10.90;99.90
22813;DHT22;11573;51.334;3.244;2023-04-27T07:57:24;11.00;99.90
22813;DHT22;11573;51.334;3.244;2023-04-27T07:59:51;11.20;99.90
22813;DHT22;11573;51.334;3.244;2023-04-27T08:02:18;11.20;99.90
22813;DHT22;11573;51.334;3.244;2023-04-27T08:04:46;11.20;99.90
22813;DHT22;11573;51.334;3.244;2023-04-27T08:07:15;11.40;99.90
22813;DHT22;11573;51.334;3.244;2023-04-27T08:09:43;11.70;99.90
22813;DHT22;11573;51.334;3.244;2023-04-27T08:12:10;11.90;99.90
22813;DHT22;11573;51.334;3.244;2023-04-27T08:14:37;12.00;99.90
22813;DHT22;11573;51.334;3.244;2023-04-27T08:17:04;12.10;99.90
22813;DHT22;11573;51.334;3.244;2023-04-27T08:19:32;12.20;99.90
22813;DHT22;11573;51.334;3.244;2023-04-27T08:21:59;12.40;99.90
22813;DHT22;11573;51.334;3.244;2023-04-27T08:24:26;12.50;99.90
22813;DHT22;11573;51.334;3.244;2023-04-27T08:26:53;12.70;99.90
22813;DHT22;11573;51.334;3.244;2023-04-27T08:29:20;12.90;99.90
22813;DHT22;11573;51.334;3.244;2023-04-27T08:31:57;13.10;99.90
22813;DHT22;11573;51.334;3.244;2023-04-27T08:34:25;13.10;99.90
22813;DHT22;11573;51.334;3.244;2023-04-27T08:36:52;13.20;99.90
22813;DHT22;11573;51.334;3.244;2023-04-27T08:39:23;13.40;99.90
22813;DHT22;11573;51.334;3.244;2023-04-27T08:41:50;13.60;99.90
22813;DHT22;11573;51.334;3.244;2023-04-27T08:44:17;13.40;99.90
22813;DHT22;11573;51.334;3.244;2023-04-27T08:46:44;13.50;99.90
22813;DHT22;11573;51.334;3.244;2023-04-27T08:49:11;13.60;99.90
22813;DHT22;11573;51.334;3.244;2023-04-27T08:51:42;13.80;99.90
22813;DHT22;11573;51.334;3.244;2023-04-27T08:54:09;14.00;99.90
22813;DHT22;11573;51.334;3.244;2023-04-27T08:56:37;14.20;99.90
22813;DHT22;11573;51.334;3.244;2023-04-27T08:59:13;14.10;99.90
22813;DHT22;11573;51.334;3.244;2023-04-27T09:01:46;14.20;99.90
22813;DHT22;11573;51.334;3.244;2023-04-27T09:04:15;14.20;99.90
22813;DHT22;11573;51.334;3.244;2023-04-27T09:06:43;14.40;99.90
22813;DHT22;11573;51.334;3.244;2023-04-27T09:09:20;14.40;99.90
22813;DHT22;11573;51.334;3.244;2023-04-27T09:11:48;14.40;99.90
22813;DHT22;11573;51.334;3.244;2023-04-27T09:14:20;14.10;99.90
22813;DHT22;11573;51.334;3.244;2023-04-27T09:16:57;14.00;99.90
22813;DHT22;11573;51.334;3.244;2023-04-27T09:19:28;14.00;99.90
22813;DHT22;11573;51.334;3.244;2023-04-27T09:22:06;14.10;99.90
22813;DHT22;11573;51.334;3.244;2023-04-27T09:24:34;14.30;99.90
22813;DHT22;11573;51.334;3.244;2023-04-27T09:27:01;14.50;99.90
22813;DHT22;11573;51.334;3.244;2023-04-27T09:29:36;14.80;99.90
22813;DHT22;11573;51.334;3.244;2023-04-27T09:32:17;14.80;99.90
22813;DHT22;11573;51.334;3.244;2023-04-27T09:34:46;14.60;99.90
22813;DHT22;11573;51.334;3.244;2023-04-27T09:37:13;14.60;99.90
22813;DHT22;11573;51.334;3.244;2023-04-27T09:39:41;14.70;99.90
22813;DHT22;11573;51.334;3.244;2023-04-27T09:42:09;15.00;99.90
22813;DHT22;11573;51.334;3.244;2023-04-27T09:44:37;15.00;99.90
22813;DHT22;11573;51.334;3.244;2023-04-27T09:47:04;15.30;99.90
22813;DHT22;11573;51.334;3.244;2023-04-27T09:49:33;15.40;99.90
22813;DHT22;11573;51.334;3.244;2023-04-27T09:52:00;15.50;99.90
22813;DHT22;11573;51.334;3.244;2023-04-27T09:54:30;15.50;99.90
22813;DHT22;11573;51.334;3.244;2023-04-27T10:02:54;15.30;99.90
22813;DHT22;11573;51.334;3.244;2023-04-27T10:08:34;15.50;99.90
22813;DHT22;11573;51.334;3.244;2023-04-27T10:11:13;15.70;99.90
22813;DHT22;11573;51.334;3.244;2023-04-27T10:13:50;15.90;99.90
22813;DHT22;11573;51.334;3.244;2023-04-27T10:16:21;15.80;99.90
22813;DHT22;11573;51.334;3.244;2023-04-27T10:18:54;15.70;99.90
22813;DHT22;11573;51.334;3.244;2023-04-27T10:21:22;15.70;99.90
22813;DHT22;11573;51.334;3.244;2023-04-27T10:23:50;15.70;99.90
22813;DHT22;11573;51.334;3.244;2023-04-27T10:26:24;15.80;99.90
22813;DHT22;11573;51.334;3.244;2023-04-27T10:29:05;15.90;99.90
22813;DHT22;11573;51.334;3.244;2023-04-27T10:31:33;15.60;99.90
22813;DHT22;11573;51.334;3.244;2023-04-27T10:34:10;15.60;99.90
22813;DHT22;11573;51.334;3.244;2023-04-27T10:36:38;15.60;99.90
22813;DHT22;11573;51.334;3.244;2023-04-27T10:39:19;15.70;99.90
22813;DHT22;11573;51.334;3.244;2023-04-27T10:41:58;15.70;99.90
22813;DHT22;11573;51.334;3.244;2023-04-27T10:44:30;15.70;99.90
22813;DHT22;11573;51.334;3.244;2023-04-27T10:47:14;15.80;99.90
22813;DHT22;11573;51.334;3.244;2023-04-27T10:49:42;16.00;99.90
22813;DHT22;11573;51.334;3.244;2023-04-27T10:52:09;16.00;99.90
22813;DHT22;11573;51.334;3.244;2023-04-27T10:54:36;15.90;99.90
22813;DHT22;11573;51.334;3.244;2023-04-27T10:57:09;15.80;99.90
22813;DHT22;11573;51.334;3.244;2023-04-27T10:59:51;15.70;99.90
22813;DHT22;11573;51.334;3.244;2023-04-27T11:02:26;15.60;99.90
22813;DHT22;11573;51.334;3.244;2023-04-27T11:04:54;15.50;99.90
22813;DHT22;11573;51.334;3.244;2023-04-27T11:07:23;15.50;99.90
22813;DHT22;11573;51.334;3.244;2023-04-27T11:09:51;15.50;99.90
22813;DHT22;11573;51.334;3.244;2023-04-27T11:12:18;15.60;99.90
22813;DHT22;11573;51.334;3.244;2023-04-27T11:14:45;15.70;99.90
22813;DHT22;11573;51.334;3.244;2023-04-27T11:17:13;15.70;99.90
22813;DHT22;11573;51.334;3.244;2023-04-27T11:19:44;15.90;99.90
22813;DHT22;11573;51.334;3.244;2023-04-27T11:22:14;15.90;99.90
22813;DHT22;11573;51.334;3.244;2023-04-27T11:24:51;15.50;99.90
22813;DHT22;11573;51.334;3.244;2023-04-27T11:27:18;15.30;99.90
22813;DHT22;11573;51.334;3.244;2023-04-27T11:29:48;15.40;99.90
22813;DHT22;11573;51.334;3.244;2023-04-27T11:32:19;15.50;99.90
22813;DHT22;11573;51.334;3.244;2023-04-27T11:34:53;15.50;99.90
22813;DHT22;11573;51.334;3.244;2023-04-27T11:37:25;15.50;99.90
22813;DHT22;11573;51.334;3.244;2023-04-27T11:39:53;15.40;99.90
22813;DHT22;11573;51.334;3.244;2023-04-27T11:44:55;15.40;99.90
22813;DHT22;11573;51.334;3.244;2023-04-27T11:47:24;15.30;99.90
22813;DHT22;11573;51.334;3.244;2023-04-27T11:49:55;15.50;99.90
22813;DHT22;11573;51.334;3.244;2023-04-27T11:52:30;15.40;99.90
22813;DHT22;11573;51.334;3.244;2023-04-27T11:54:59;15.30;99.90
22813;DHT22;11573;51.334;3.244;2023-04-27T11:57:34;15.30;99.90
22813;DHT22;11573;51.334;3.244;2023-04-27T12:00:04;15.40;99.90
22813;DHT22;11573;51.334;3.244;2023-04-27T12:02:41;15.60;99.90
22813;DHT22;11573;51.334;3.244;2023-04-27T12:05:09;15.70;99.90
22813;DHT22;11573;51.334;3.244;2023-04-27T12:07:38;15.60;99.90
22813;DHT22;11573;51.334;3.244;2023-04-27T12:10:06;15.70;99.90
22813;DHT22;11573;51.334;3.244;2023-04-27T12:12:33;15.60;99.90
22813;DHT22;11573;51.334;3.244;2023-04-27T12:15:00;15.60;99.90
22813;DHT22;11573;51.334;3.244;2023-04-27T12:17:28;15.40;99.90
22813;DHT22;11573;51.334;3.244;2023-04-27T12:19:55;15.60;99.90
22813;DHT22;11573;51.334;3.244;2023-04-27T12:22:22;15.70;99.90
22813;DHT22;11573;51.334;3.244;2023-04-27T12:24:50;16.10;99.90
22813;DHT22;11573;51.334;3.244;2023-04-27T12:27:17;16.50;99.90
22813;DHT22;11573;51.334;3.244;2023-04-27T12:29:44;16.50;99.90
22813;DHT22;11573;51.334;3.244;2023-04-27T12:32:11;16.30;99.90
22813;DHT22;11573;51.334;3.244;2023-04-27T12:34:38;16.50;99.90
22813;DHT22;11573;51.334;3.244;2023-04-27T12:37:05;16.80;99.90
22813;DHT22;11573;51.334;3.244;2023-04-27T12:39:33;17.00;99.90
22813;DHT22;11573;51.334;3.244;2023-04-27T12:42:00;16.90;99.90
22813;DHT22;11573;51.334;3.244;2023-04-27T12:44:28;17.10;99.90
22813;DHT22;11573;51.334;3.244;2023-04-27T12:46:55;17.40;99.90
22813;DHT22;11573;51.334;3.244;2023-04-27T12:49:22;17.50;99.90
22813;DHT22;11573;51.334;3.244;2023-04-27T12:51:49;17.30;99.90
22813;DHT22;11573;51.334;3.244;2023-04-27T12:54:17;17.40;99.90
22813;DHT22;11573;51.334;3.244;2023-04-27T12:56:44;17.10;99.90
22813;DHT22;11573;51.334;3.244;2023-04-27T12:59:12;17.10;99.90
22813;DHT22;11573;51.334;3.244;2023-04-27T13:01:39;17.30;99.90
22813;DHT22;11573;51.334;3.244;2023-04-27T13:04:06;17.20;99.90
22813;DHT22;11573;51.334;3.244;2023-04-27T13:06:35;16.90;99.90
22813;DHT22;11573;51.334;3.244;2023-04-27T13:09:01;16.70;99.90
22813;DHT22;11573;51.334;3.244;2023-04-27T13:11:29;16.60;99.90
22813;DHT22;11573;51.334;3.244;2023-04-27T13:13:56;16.50;99.90
22813;DHT22;11573;51.334;3.244;2023-04-27T13:16:23;16.70;99.90
22813;DHT22;11573;51.334;3.244;2023-04-27T13:18:51;16.80;99.90
22813;DHT22;11573;51.334;3.244;2023-04-27T13:21:19;17.00;99.90
22813;DHT22;11573;51.334;3.244;2023-04-27T13:23:47;17.10;99.90
22813;DHT22;11573;51.334;3.244;2023-04-27T13:26:14;17.30;99.90
22813;DHT22;11573;51.334;3.244;2023-04-27T13:28:41;17.30;99.90
22813;DHT22;11573;51.334;3.244;2023-04-27T13:31:09;17.20;99.90
22813;DHT22;11573;51.334;3.244;2023-04-27T13:33:41;17.30;99.90
22813;DHT22;11573;51.334;3.244;2023-04-27T13:36:09;17.70;99.90
22813;DHT22;11573;51.334;3.244;2023-04-27T13:38:36;17.90;99.90
22813;DHT22;11573;51.334;3.244;2023-04-27T13:41:04;17.80;99.90
22813;DHT22;11573;51.334;3.244;2023-04-27T13:43:31;17.80;98.40
22813;DHT22;11573;51.334;3.244;2023-04-27T13:46:01;17.70;99.90
22813;DHT22;11573;51.334;3.244;2023-04-27T13:48:29;17.60;99.90
22813;DHT22;11573;51.334;3.244;2023-04-27T13:50:56;17.70;98.50
22813;DHT22;11573;51.334;3.244;2023-04-27T13:53:24;17.40;98.40
22813;DHT22;11573;51.334;3.244;2023-04-27T13:55:55;17.50;99.90
22813;DHT22;11573;51.334;3.244;2023-04-27T13:58:23;17.60;99.90
22813;DHT22;11573;51.334;3.244;2023-04-27T14:00:52;17.40;99.10
22813;DHT22;11573;51.334;3.244;2023-04-27T14:03:20;17.60;99.90
22813;DHT22;11573;51.334;3.244;2023-04-27T14:05:50;17.60;99.90
22813;DHT22;11573;51.334;3.244;2023-04-27T14:08:17;17.60;99.40
22813;DHT22;11573;51.334;3.244;2023-04-27T14:10:44;17.70;99.60
22813;DHT22;11573;51.334;3.244;2023-04-27T14:13:12;17.90;99.90
22813;DHT22;11573;51.334;3.244;2023-04-27T14:15:39;18.00;99.90
22813;DHT22;11573;51.334;3.244;2023-04-27T14:18:07;18.10;99.20
22813;DHT22;11573;51.334;3.244;2023-04-27T14:20:36;18.00;99.70
22813;DHT22;11573;51.334;3.244;2023-04-27T14:23:04;18.10;99.90
22813;DHT22;11573;51.334;3.244;2023-04-27T14:25:31;18.30;99.90
22813;DHT22;11573;51.334;3.244;2023-04-27T14:28:02;18.50;97.80
22813;DHT22;11573;51.334;3.244;2023-04-27T14:30:33;18.50;98.00
22813;DHT22;11573;51.334;3.244;2023-04-27T14:33:01;18.40;98.40
22813;DHT22;11573;51.334;3.244;2023-04-27T14:35:28;18.50;97.00
22813;DHT22;11573;51.334;3.244;2023-04-27T14:37:55;18.50;97.80
22813;DHT22;11573;51.334;3.244;2023-04-27T14:40:28;18.70;96.40
22813;DHT22;11573;51.334;3.244;2023-04-27T14:42:56;19.20;98.40
22813;DHT22;11573;51.334;3.244;2023-04-27T14:45:24;19.00;94.90
22813;DHT22;11573;51.334;3.244;2023-04-27T14:47:59;18.40;97.10
22813;DHT22;11573;51.334;3.244;2023-04-27T14:50:27;18.10;95.80
22813;DHT22;11573;51.334;3.244;2023-04-27T14:52:54;17.70;95.40
22813;DHT22;11573;51.334;3.244;2023-04-27T14:55:24;17.70;97.60
22813;DHT22;11573;51.334;3.244;2023-04-27T14:57:51;17.80;98.50
22813;DHT22;11573;51.334;3.244;2023-04-27T15:00:18;17.70;97.10
22813;DHT22;11573;51.334;3.244;2023-04-27T15:02:46;17.80;97.70
22813;DHT22;11573;51.334;3.244;2023-04-27T15:05:13;17.90;98.20
22813;DHT22;11573;51.334;3.244;2023-04-27T15:07:40;17.90;97.10
22813;DHT22;11573;51.334;3.244;2023-04-27T15:10:07;17.90;98.60
22813;DHT22;11573;51.334;3.244;2023-04-27T15:12:34;18.00;98.40
22813;DHT22;11573;51.334;3.244;2023-04-27T15:15:01;17.80;96.40
22813;DHT22;11573;51.334;3.244;2023-04-27T15:17:29;17.50;95.00
22813;DHT22;11573;51.334;3.244;2023-04-27T15:19:56;17.30;96.60
22813;DHT22;11573;51.334;3.244;2023-04-27T15:22:23;16.80;97.60
22813;DHT22;11573;51.334;3.244;2023-04-27T15:24:51;16.70;97.80
22813;DHT22;11573;51.334;3.244;2023-04-27T15:27:18;16.70;97.90
22813;DHT22;11573;51.334;3.244;2023-04-27T15:29:45;16.60;98.80
22813;DHT22;11573;51.334;3.244;2023-04-27T15:32:13;16.70;99.60
22813;DHT22;11573;51.334;3.244;2023-04-27T15:34:40;16.60;99.10
22813;DHT22;11573;51.334;3.244;2023-04-27T15:37:12;16.80;97.90
22813;DHT22;11573;51.334;3.244;2023-04-27T15:39:39;16.70;97.70
22813;DHT22;11573;51.334;3.244;2023-04-27T15:42:07;16.60;98.20
22813;DHT22;11573;51.334;3.244;2023-04-27T15:44:35;16.60;99.20
22813;DHT22;11573;51.334;3.244;2023-04-27T15:47:02;16.40;97.70
22813;DHT22;11573;51.334;3.244;2023-04-27T15:49:29;16.40;97.70
22813;DHT22;11573;51.334;3.244;2023-04-27T15:51:56;16.10;98.40
22813;DHT22;11573;51.334;3.244;2023-04-27T15:54:23;16.00;98.10
22813;DHT22;11573;51.334;3.244;2023-04-27T15:56:50;15.80;97.60